createdAt,value
2022-12-11T00:04:50.139Z,1.56
2022-12-11T00:10:05.030Z,1.81
2022-12-11T00:15:19.904Z,1.81
2022-12-11T00:19:49.879Z,2
2022-12-11T00:24:59.640Z,1.81
2022-12-11T00:30:07.481Z,1.81
2022-12-11T00:35:16.590Z,1.81
2022-12-11T00:40:26.360Z,1.5
2022-12-11T00:45:34.927Z,1.25
2022-12-11T00:50:45.880Z,1.25
2022-12-11T00:55:54.999Z,1.19
2022-12-11T01:01:03.565Z,1
2022-12-11T01:06:13.239Z,1.12
2022-12-11T01:11:21.725Z,1.19
2022-12-11T01:16:31.650Z,1.19
2022-12-11T01:21:41.271Z,1.31
2022-12-11T01:26:51.001Z,1.31
2022-12-11T01:32:00.117Z,1.31
2022-12-11T01:37:08.598Z,1.25
2022-12-11T01:42:17.725Z,1.38
2022-12-11T01:47:26.840Z,1.38
2022-12-11T01:52:36.629Z,1.44
2022-12-11T01:57:45.078Z,1.5
2022-12-11T02:02:54.287Z,1.75
2022-12-11T02:08:02.162Z,1.62
2022-12-11T02:13:11.173Z,1.62
2022-12-11T02:18:19.637Z,1.69
2022-12-11T02:23:28.124Z,1.62
2022-12-11T02:28:37.876Z,1.75
2022-12-11T02:33:46.999Z,1.69
2022-12-11T02:38:56.791Z,1.75
2022-12-11T02:44:05.251Z,1.75
2022-12-11T02:49:15.005Z,1.81
2022-12-11T02:54:23.514Z,1.75
2022-12-11T02:59:32.599Z,1.75
2022-12-11T03:04:42.387Z,1.81
2022-12-11T03:09:50.853Z,1.81
2022-12-11T03:15:00.600Z,1.75
2022-12-11T03:20:10.997Z,1.81
2022-12-11T03:25:20.119Z,1.88
2022-12-11T03:30:28.769Z,1.81
2022-12-11T03:35:37.719Z,1.88
2022-12-11T03:40:46.214Z,2.06
2022-12-11T03:45:55.520Z,1.88
2022-12-11T03:51:05.066Z,1.94
2022-12-11T03:56:16.857Z,1.88
2022-12-11T04:01:31.852Z,1.81
2022-12-11T04:06:47.900Z,1.69
2022-12-11T04:12:03.409Z,1.62
2022-12-11T04:17:18.977Z,1.31
2022-12-11T04:22:34.473Z,1.5
2022-12-11T04:27:49.981Z,1.62
2022-12-11T04:32:18.677Z,1.69
2022-12-11T04:37:27.833Z,1.81
2022-12-11T04:42:37.560Z,1.75
2022-12-11T04:47:47.991Z,1.88
2022-12-11T04:52:57.080Z,1.81
2022-12-11T04:58:06.199Z,1.69
2022-12-11T05:03:15.319Z,1.94
2022-12-11T05:08:25.164Z,1.88
2022-12-11T05:13:33.595Z,1.81
2022-12-11T05:18:42.039Z,1.94
2022-12-11T05:23:51.158Z,1.88
2022-12-11T05:29:00.959Z,1.94
2022-12-11T05:34:10.670Z,1.94
2022-12-11T05:39:20.468Z,1.75
2022-12-11T05:44:30.198Z,1.88
2022-12-11T05:49:38.677Z,1.88
2022-12-11T05:54:47.191Z,1.88
2022-12-11T05:59:56.919Z,2
2022-12-11T06:05:06.071Z,2
2022-12-11T06:10:15.797Z,1.94
2022-12-11T06:15:24.283Z,1.62
2022-12-11T06:20:33.431Z,1.81
2022-12-11T06:25:41.875Z,1.75
2022-12-11T06:30:50.369Z,1.75
2022-12-11T06:35:59.516Z,1.56
2022-12-11T06:41:07.981Z,1.69
2022-12-11T06:46:17.132Z,2
2022-12-11T06:51:25.564Z,1.94
2022-12-11T06:56:34.071Z,2
2022-12-11T07:01:43.808Z,2
2022-12-11T07:06:52.280Z,1.94
2022-12-11T07:12:02.022Z,1.88
2022-12-11T07:17:10.521Z,1.75
2022-12-11T07:22:19.667Z,2
2022-12-11T07:27:28.760Z,2.06
2022-12-11T07:32:38.579Z,1.69
2022-12-11T07:37:47.660Z,1.94
2022-12-11T07:42:56.124Z,1.94
2022-12-11T07:48:05.236Z,1.94
2022-12-11T07:53:14.464Z,2.06
2022-12-11T07:58:24.757Z,2.19
2022-12-11T08:03:33.270Z,2.06
2022-12-11T08:08:47.485Z,2.06
2022-12-11T08:14:02.462Z,2.12
2022-12-11T08:19:17.985Z,2.12
2022-12-11T08:24:34.791Z,2.25
2022-12-11T08:29:54.172Z,2.19
2022-12-11T08:35:08.675Z,2.25
2022-12-11T08:39:37.074Z,2.12
2022-12-11T08:44:46.231Z,2.31
2022-12-11T08:49:55.324Z,2.31
2022-12-11T08:55:03.804Z,2.38
2022-12-11T09:00:14.205Z,2.31
2022-12-11T09:05:23.967Z,2.38
2022-12-11T09:10:33.082Z,2.44
2022-12-11T09:15:42.942Z,2.56
2022-12-11T09:20:52.621Z,2.12
2022-12-11T09:26:05.659Z,2.44
2022-12-11T09:31:21.297Z,2.31
2022-12-11T09:36:36.095Z,2.38
2022-12-11T09:41:52.219Z,2.38
2022-12-11T09:47:07.861Z,2.44
2022-12-11T09:52:23.261Z,2.38
2022-12-11T09:56:53.882Z,2.38
2022-12-11T10:02:02.424Z,2.5
2022-12-11T10:07:12.152Z,2.56
2022-12-11T10:12:19.970Z,2.69
2022-12-11T10:17:28.455Z,2.56
2022-12-11T10:22:38.240Z,2.69
2022-12-11T10:27:47.326Z,2.75
2022-12-11T10:32:56.440Z,2.88
2022-12-11T10:38:06.841Z,2.88
2022-12-11T10:43:16.602Z,2.81
2022-12-11T10:48:25.721Z,2.88
2022-12-11T10:53:35.485Z,2.81
2022-12-11T10:58:43.990Z,2.75
2022-12-11T11:03:53.098Z,2.81
2022-12-11T11:09:01.562Z,2.81
2022-12-11T11:14:11.350Z,2.75
2022-12-11T11:19:20.442Z,2.62
2022-12-11T11:24:30.232Z,2.56
2022-12-11T11:29:38.068Z,2.69
2022-12-11T11:34:47.802Z,2.69
2022-12-11T11:39:56.268Z,2.81
2022-12-11T11:45:05.410Z,2.94
2022-12-11T11:50:13.879Z,2.88
2022-12-11T11:55:23.350Z,2.81
2022-12-11T12:00:34.237Z,2.88
2022-12-11T12:05:40.599Z,2.81
2022-12-11T12:10:49.720Z,2.75
2022-12-11T12:15:59.618Z,2.75
2022-12-11T12:21:09.237Z,2.75
2022-12-11T12:26:19.000Z,2.81
2022-12-11T12:28:18.679Z,2.69
2022-12-11T12:33:31.638Z,2.69
2022-12-11T12:38:43.318Z,2.81
2022-12-11T12:43:53.270Z,2.88
2022-12-11T12:49:02.203Z,2.81
2022-12-11T12:54:27.971Z,2.75
2022-12-11T12:59:37.075Z,2.69
2022-12-11T13:04:56.517Z,2.75
2022-12-11T13:09:55.963Z,2.88
2022-12-11T13:15:04.439Z,2.81
2022-12-11T13:20:14.201Z,2.75
2022-12-11T13:25:23.318Z,2.88
2022-12-11T13:30:32.470Z,2.81
2022-12-11T13:35:41.556Z,2.75
2022-12-11T13:40:50.038Z,2.88
2022-12-11T13:45:59.282Z,2.88
2022-12-11T13:51:08.280Z,2.94
2022-12-11T13:56:16.762Z,2.94
2022-12-11T14:01:25.308Z,2.75
2022-12-11T14:06:34.998Z,2.81
2022-12-11T14:11:43.483Z,2.88
2022-12-11T14:16:53.377Z,2.88
2022-12-11T14:22:02.360Z,2.88
2022-12-11T14:27:13.397Z,2.88
2022-12-11T14:32:23.161Z,2.81
2022-12-11T14:37:31.670Z,2.75
2022-12-11T14:42:40.764Z,2.88
2022-12-11T14:47:49.241Z,2.88
2022-12-11T14:52:58.416Z,2.88
2022-12-11T14:58:06.853Z,2.75
2022-12-11T15:03:15.980Z,2.81
2022-12-11T15:08:25.951Z,2.75
2022-12-11T15:13:37.517Z,2.75
2022-12-11T15:18:54.343Z,2.75
2022-12-11T15:24:10.456Z,2.81
2022-12-11T15:29:25.345Z,2.69
2022-12-11T15:34:40.225Z,2.69
2022-12-11T15:39:56.380Z,2.75
2022-12-11T15:45:12.018Z,2.81
2022-12-11T15:49:39.331Z,2.62
2022-12-11T15:54:48.442Z,2.75
2022-12-11T15:59:58.234Z,2.94
2022-12-11T16:05:06.682Z,2.81
2022-12-11T16:10:15.161Z,2.69
2022-12-11T16:15:24.588Z,2.5
2022-12-11T16:20:32.769Z,2.56
2022-12-11T16:25:43.484Z,2.62
2022-12-11T16:30:52.376Z,2.56
2022-12-11T16:36:01.398Z,2.69
2022-12-11T16:41:10.557Z,2.62
2022-12-11T16:46:18.453Z,2.5
2022-12-11T16:51:26.847Z,2.5
2022-12-11T16:56:35.316Z,2.69
2022-12-11T17:01:43.894Z,2.5
2022-12-11T17:06:52.309Z,2.69
2022-12-11T17:12:00.744Z,2.5
2022-12-11T17:17:09.245Z,2.62
2022-12-11T17:22:17.721Z,2.62
2022-12-11T17:27:26.230Z,2.69
2022-12-11T17:32:36.606Z,2.56
2022-12-11T17:37:46.348Z,2.62
2022-12-11T17:42:54.843Z,2.62
2022-12-11T17:48:03.321Z,2.56
2022-12-11T17:53:12.472Z,2.62
2022-12-11T17:58:21.563Z,2.62
2022-12-11T18:03:32.092Z,2.5
2022-12-11T18:08:40.513Z,2.56
2022-12-11T18:13:49.559Z,2.56
2022-12-11T18:18:58.081Z,2.62
2022-12-11T18:24:05.912Z,2.5
2022-12-11T18:29:15.000Z,2.5
2022-12-11T18:34:23.482Z,2.62
2022-12-11T18:39:32.635Z,2.75
2022-12-11T18:44:41.079Z,2.69
2022-12-11T18:49:48.918Z,2.69
2022-12-11T18:54:58.709Z,2.5
2022-12-11T19:00:07.213Z,2.56
2022-12-11T19:05:16.280Z,2.5
2022-12-11T19:10:26.068Z,2.62
2022-12-11T19:15:34.521Z,2.69
2022-12-11T19:21:09.428Z,2.69
2022-12-11T19:26:00.838Z,2.62
2022-12-11T19:31:15.465Z,2.62
2022-12-11T19:36:31.618Z,2.62
2022-12-11T19:41:48.414Z,2.56
2022-12-11T19:47:04.034Z,2.75
2022-12-11T19:52:21.353Z,2.56
2022-12-11T19:56:48.114Z,2.69
2022-12-11T20:01:56.697Z,2.62
2022-12-11T20:07:05.757Z,2.56
2022-12-11T20:12:14.841Z,2.75
2022-12-11T20:17:25.357Z,2.56
2022-12-11T20:22:34.367Z,2.56
2022-12-11T20:27:43.490Z,2.75
2022-12-11T20:32:53.248Z,2.69
2022-12-11T20:38:03.003Z,2.62
2022-12-11T20:43:11.516Z,2.5
2022-12-11T20:48:21.242Z,2.62
2022-12-11T20:53:31.036Z,2.56
2022-12-11T20:58:40.132Z,2.62
2022-12-11T21:03:48.600Z,2.56
2022-12-11T21:08:57.751Z,2.62
2022-12-11T21:14:07.480Z,2.56
2022-12-11T21:19:17.423Z,2.62
2022-12-11T21:24:25.722Z,2.69
2022-12-11T21:29:35.482Z,2.56
2022-12-11T21:34:43.993Z,2.69
2022-12-11T21:39:53.718Z,2.56
2022-12-11T21:50:11.964Z,2.56
2022-12-11T21:55:21.092Z,2.5
2022-12-11T22:00:30.234Z,2.25
2022-12-11T22:05:38.677Z,2.44
2022-12-11T22:10:48.440Z,2.5
2022-12-11T22:15:56.958Z,2.5
2022-12-11T22:21:06.678Z,2.56
2022-12-11T22:26:16.470Z,2.56
2022-12-11T22:31:26.200Z,2.56
2022-12-11T22:36:35.985Z,2.69
2022-12-11T22:41:45.716Z,2.44
2022-12-11T22:46:55.513Z,2.5
2022-12-11T22:52:03.963Z,2.5
2022-12-11T22:57:13.078Z,2.44
2022-12-11T23:02:22.343Z,2.44
2022-12-11T23:07:31.983Z,2.44
2022-12-11T23:12:41.116Z,2.38
2022-12-11T23:17:51.478Z,2.44
2022-12-11T23:23:00.636Z,2.44
2022-12-11T23:28:09.080Z,2.44
2022-12-11T23:33:24.090Z,2.5
2022-12-11T23:38:39.579Z,2.06
2022-12-11T23:43:55.126Z,2.06
2022-12-11T23:49:12.535Z,2.06
2022-12-11T23:54:28.730Z,2.31
2022-12-11T23:59:44.221Z,2.25
